Time;durP1;ratioP1;P1;durP2;ratioP2;P2;SDS_P1;SDS_P2;PMS_P1;PMS_P2;Temp;Humidity;BMP_temperature;BMP_pressure;BME280_temperature;BME280_humidity;BME280_pressure;Samples;Min_cycle;Max_cycle;Signal;HPM_P1;HPM_P2
2022/12/06 00:01:45;;;;;;;45.58;23.20;;;;;;;8.62;68.64;99963.75;7712079;32;37834;-82
2022/12/06 00:06:07;;;;;;;48.13;23.42;;;;;;;8.81;67.97;99956.09;7712170;32;37486;-83
2022/12/06 00:10:23;;;;;;;45.72;23.75;;;;;;;8.46;68.84;99946.44;7712146;32;39370;-83
2022/12/06 00:14:39;;;;;;;43.35;23.33;;;;;;;8.33;69.70;99940.53;7711962;32;40071;-83
2022/12/06 00:18:56;;;;;;;46.92;22.92;;;;;;;8.23;70.28;99933.09;7710864;32;38688;-83
2022/12/06 00:23:12;;;;;;;44.40;22.13;;;;;;;8.62;68.71;99911.28;7711995;32;37270;-83
2022/12/06 00:27:28;;;;;;;45.38;24.05;;;;;;;8.23;70.28;99920.34;7711972;32;40095;-83
2022/12/06 00:31:45;;;;;;;45.50;23.50;;;;;;;7.87;71.09;99917.16;7711883;32;39910;-83
2022/12/06 00:36:07;;;;;;;41.75;21.80;;;;;;;8.45;69.50;99912.22;7711770;32;38043;-82
2022/12/06 00:40:23;;;;;;;38.70;22.58;;;;;;;8.43;69.47;99902.66;7711800;32;37204;-82
2022/12/06 00:44:39;;;;;;;43.42;23.20;;;;;;;8.41;69.10;99915.66;7711671;32;39315;-85
2022/12/06 00:48:57;;;;;;;41.60;23.45;;;;;;;7.65;71.73;99914.41;7711643;32;39888;-83
2022/12/06 00:53:13;;;;;;;42.67;23.60;;;;;;;7.55;72.22;99914.25;7711774;32;37806;-83
2022/12/06 00:57:29;;;;;;;42.55;21.98;;;;;;;7.65;71.69;99913.59;7711529;32;37189;-83
2022/12/06 01:01:45;;;;;;;37.80;20.52;;;;;;;7.64;71.59;99898.38;7711549;32;40107;-83
2022/12/06 01:06:05;;;;;;;42.25;22.00;;;;;;;7.85;70.40;99892.16;7711510;32;39952;-83
2022/12/06 01:10:21;;;;;;;37.90;21.30;;;;;;;7.79;70.51;99876.88;7711421;32;37872;-83
2022/12/06 01:14:37;;;;;;;35.97;19.92;;;;;;;7.21;73.18;99859.22;7711396;32;37190;-83
2022/12/06 01:19:00;;;;;;;36.92;20.33;;;;;;;7.52;71.83;99828.78;7711255;32;39058;-83
2022/12/06 01:23:16;;;;;;;36.65;20.45;;;;;;;7.32;72.34;99834.72;7711425;32;39601;-83
2022/12/06 01:27:32;;;;;;;34.33;19.48;;;;;;;7.03;73.35;99844.84;7710891;32;38686;-83
2022/12/06 01:31:48;;;;;;;35.03;20.15;;;;;;;7.46;72.17;99835.19;7711232;32;37386;-83
2022/12/06 01:36:05;;;;;;;36.47;21.10;;;;;;;7.62;70.76;99830.81;7711199;32;39423;-82
2022/12/06 01:40:21;;;;;;;33.03;19.40;;;;;;;7.50;71.65;99836.34;7710953;32;39903;-82
2022/12/06 01:44:41;;;;;;;37.78;20.17;;;;;;;7.65;70.91;99829.47;7710968;32;37878;-83
2022/12/06 01:49:20;;;;;;;33.08;17.62;;;;;;;7.61;71.30;99820.22;7711029;32;38098;-82
2022/12/06 01:53:37;;;;;;;35.72;18.80;;;;;;;7.46;71.14;99802.63;7711016;32;39281;-82
2022/12/06 01:57:57;;;;;;;33.85;19.00;;;;;;;7.25;72.63;99787.16;7710785;32;39989;-82
2022/12/06 02:02:13;;;;;;;30.73;18.02;;;;;;;7.47;71.52;99804.28;7710853;32;38769;-83
2022/12/06 02:06:30;;;;;;;30.62;17.85;;;;;;;7.72;70.70;99792.12;7710675;32;37952;-82
2022/12/06 02:10:47;;;;;;;32.15;17.70;;;;;;;7.46;71.17;99808.06;7709461;32;39421;-83
2022/12/06 02:15:03;;;;;;;31.40;16.70;;;;;;;7.58;70.61;99815.28;7710362;32;40549;-83
2022/12/06 02:19:57;;;;;;;29.33;16.45;;;;;;;7.72;69.97;99859.97;7709091;32;38017;-83
2022/12/06 02:24:33;;;;;;;25.50;15.38;;;;;;;7.73;69.77;99875.19;7710491;32;37811;-83
2022/12/06 02:29:19;;;;;;;24.65;14.18;;;;;;;7.82;69.80;99884.53;7710291;32;39196;-83
2022/12/06 02:33:43;;;;;;;25.17;14.00;;;;;;;8.04;68.73;99870.16;7709191;32;40957;-83
2022/12/06 02:38:18;;;;;;;27.33;13.18;;;;;;;8.25;68.26;99835.88;7710070;32;37975;-83
2022/12/06 02:42:53;;;;;;;20.92;12.43;;;;;;;8.58;66.98;99828.63;7712120;32;37239;-84
2022/12/06 02:47:11;;;;;;;24.12;12.23;;;;;;;8.38;67.21;99834.66;7712243;32;40050;-83
2022/12/06 02:51:29;;;;;;;19.10;10.90;;;;;;;8.13;68.50;99843.38;7711978;32;38850;-85
2022/12/06 02:55:46;;;;;;;19.37;11.50;;;;;;;8.52;67.27;99816.91;7711767;32;38620;-83
2022/12/06 03:00:23;;;;;;;19.10;10.82;;;;;;;8.24;67.93;99816.06;7711683;32;38159;-83
2022/12/06 03:04:58;;;;;;;17.95;10.30;;;;;;;8.35;67.32;99802.59;7711933;32;40096;-82
2022/12/06 03:09:49;;;;;;;17.60;10.32;;;;;;;8.31;67.14;99812.31;7712881;32;40028;-83
2022/12/06 03:14:13;;;;;;;16.08;9.88;;;;;;;8.31;66.88;99791.38;7683813;32;38495;-82
2022/12/06 03:18:35;;;;;;;16.50;8.82;;;;;;;8.04;67.28;99794.13;7712638;32;37977;-83
2022/12/06 03:22:57;;;;;;;17.87;10.32;;;;;;;8.11;67.22;99796.66;7712887;32;39396;-82
2022/12/06 03:27:16;;;;;;;16.50;9.82;;;;;;;7.99;67.72;99792.16;7711616;32;40772;-83
2022/12/06 03:31:34;;;;;;;18.85;10.13;;;;;;;7.84;67.95;99784.66;7711525;32;37914;-83
2022/12/06 03:35:53;;;;;;;15.93;9.25;;;;;;;8.17;66.68;99784.75;7711464;32;37273;-82
2022/12/06 03:40:24;;;;;;;18.25;10.52;;;;;;;7.90;67.41;99772.78;7711287;32;40947;-82
2022/12/06 03:44:41;;;;;;;18.08;9.98;;;;;;;7.76;68.03;99760.69;7712652;32;40173;-82
2022/12/06 03:49:34;;;;;;;20.90;9.68;;;;;;;7.64;68.09;99744.53;7712367;32;38738;-82
2022/12/06 03:53:52;;;;;;;17.50;9.30;;;;;;;7.94;67.13;99723.44;7711169;32;36973;-82
2022/12/06 03:58:09;;;;;;;16.90;9.55;;;;;;;7.40;68.37;99695.16;7711299;32;39233;-82
2022/12/06 04:02:25;;;;;;;17.17;9.13;;;;;;;7.58;68.48;99720.31;7712253;32;40001;-82
2022/12/06 04:06:41;;;;;;;13.68;8.25;;;;;;;7.57;68.46;99756.66;7712238;32;38622;-82
2022/12/06 04:10:57;;;;;;;13.88;8.45;;;;;;;7.62;68.44;99778.41;7712187;32;37840;-82
2022/12/06 04:15:14;;;;;;;11.60;6.87;;;;;;;7.64;68.64;99797.97;7712108;32;39336;-82
2022/12/06 04:19:30;;;;;;;12.10;6.43;;;;;;;8.14;67.02;99788.81;7711743;32;40765;-83
2022/12/06 04:23:49;;;;;;;11.82;6.97;;;;;;;7.90;67.91;99793.69;7711982;32;37869;-82
2022/12/06 04:46:25;;;;;;;16.00;7.97;;;;;;;8.48;65.51;99749.75;7711894;32;37178;-82
2022/12/06 04:50:45;;;;;;;11.48;7.00;;;;;;;8.53;64.90;99761.47;7711802;32;40165;-83
2022/12/06 04:55:02;;;;;;;11.95;7.47;;;;;;;8.30;65.62;99769.94;7710688;32;40867;-83
2022/12/06 04:59:19;;;;;;;12.85;7.20;;;;;;;8.46;65.40;99769.03;7711539;32;37839;-82
2022/12/06 05:03:35;;;;;;;12.70;7.07;;;;;;;8.06;66.67;99778.41;7711085;32;38003;-82
2022/12/06 05:07:58;;;;;;;12.73;7.28;;;;;;;8.28;65.93;99781.88;7711596;32;40037;-83
2022/12/06 05:12:15;;;;;;;14.02;8.15;;;;;;;8.39;65.94;99781.97;7711515;32;39986;-83
2022/12/06 05:16:31;;;;;;;14.38;7.57;;;;;;;8.16;66.55;99777.66;7711443;32;37969;-83
2022/12/06 05:20:48;;;;;;;12.35;8.00;;;;;;;8.33;65.98;99774.84;7711349;32;37125;-83
2022/12/06 05:25:04;;;;;;;12.32;7.07;;;;;;;8.45;65.57;99770.09;7711508;32;39838;-82
2022/12/06 05:29:21;;;;;;;15.85;7.07;;;;;;;8.35;65.56;99770.81;7711382;32;39981;-82
2022/12/06 05:33:37;;;;;;;11.45;7.22;;;;;;;8.41;65.65;99760.78;7710017;32;37970;-83
2022/12/06 05:37:54;;;;;;;12.37;6.53;;;;;;;8.15;66.32;99765.97;7711220;32;36658;-83
2022/12/06 05:42:10;;;;;;;11.75;6.47;;;;;;;8.17;66.43;99768.44;7711195;32;39028;-83
2022/12/06 05:46:37;;;;;;;11.25;6.25;;;;;;;8.39;65.93;99768.38;7711246;32;40095;-83
2022/12/06 05:50:53;;;;;;;11.70;6.47;;;;;;;8.58;64.90;99758.81;7710907;32;38703;-83
2022/12/06 05:55:09;;;;;;;12.23;5.72;;;;;;;8.51;64.94;99750.06;7709801;32;37541;-82
2022/12/06 05:59:25;;;;;;;15.70;7.65;;;;;;;8.40;65.01;99748.28;7710904;32;39317;-82
2022/12/06 06:03:41;;;;;;;8.90;5.03;;;;;;;8.07;66.18;99752.84;7710795;32;39850;-81
2022/12/06 06:08:03;;;;;;;13.70;6.95;;;;;;;8.40;65.18;99740.13;7710671;32;37743;-82
2022/12/06 06:12:19;;;;;;;5.90;3.95;;;;;;;8.12;66.08;99747.47;7710662;32;38032;-82
2022/12/06 06:16:35;;;;;;;8.90;4.28;;;;;;;8.41;64.90;99752.66;7709594;32;39326;-82
2022/12/06 06:20:54;;;;;;;8.75;5.18;;;;;;;8.34;65.07;99752.03;7710062;32;39941;-82
2022/12/06 06:25:10;;;;;;;7.85;4.32;;;;;;;8.11;65.84;99762.16;7710449;32;37798;-81
2022/12/06 06:29:26;;;;;;;9.93;5.05;;;;;;;7.93;66.20;99776.06;7710448;32;37701;-82
2022/12/06 06:33:43;;;;;;;7.20;4.50;;;;;;;7.93;66.36;99786.94;7710250;32;39252;-83
2022/12/06 06:37:59;;;;;;;9.90;5.05;;;;;;;7.99;66.29;99766.91;7710065;32;40044;-83
2022/12/06 06:42:16;;;;;;;7.28;4.47;;;;;;;8.15;65.93;99768.69;7709957;32;38596;-83
2022/12/06 06:46:33;;;;;;;12.65;5.82;;;;;;;8.06;66.04;99773.78;7709890;32;37152;-82
2022/12/06 06:50:49;;;;;;;15.02;8.07;;;;;;;8.23;65.57;99760.09;7709833;32;40160;-82
2022/12/06 06:55:12;;;;;;;12.88;7.87;;;;;;;7.30;68.24;99779.91;7709777;32;40733;-82
2022/12/06 06:59:28;;;;;;;12.63;7.30;;;;;;;7.89;66.99;99764.91;7709489;32;37504;-82
2022/12/06 07:03:44;;;;;;;10.23;4.90;;;;;;;7.89;66.93;99764.91;7709506;32;37021;-81
2022/12/06 07:08:01;;;;;;;8.65;4.45;;;;;;;7.21;68.05;99751.59;7709071;32;39420;-82
2022/12/06 07:12:17;;;;;;;7.95;4.80;;;;;;;6.82;69.04;99757.00;7703467;32;41637;-83
2022/12/06 07:16:33;;;;;;;8.75;5.05;;;;;;;6.77;69.26;99740.66;7684776;32;37787;-84
2022/12/06 07:20:57;;;;;;;11.00;6.00;;;;;;;7.25;68.20;99754.63;7682441;32;37220;-81
2022/12/06 07:25:13;;;;;;;8.90;4.93;;;;;;;7.48;67.45;99756.28;7683034;32;40125;-82
2022/12/06 07:29:29;;;;;;;10.18;6.12;;;;;;;7.58;66.86;99742.03;7701352;32;40138;-84
2022/12/06 07:33:46;;;;;;;9.30;5.80;;;;;;;7.56;67.07;99738.75;7707846;32;37830;-84
2022/12/06 07:38:02;;;;;;;15.38;8.30;;;;;;;7.83;66.12;99752.34;7701655;32;36870;-84
2022/12/06 07:46:55;;;;;;;10.95;6.47;;;;;;;6.75;68.95;99780.72;7712680;32;39988;-83
2022/12/06 07:51:11;;;;;;;8.98;5.50;;;;;;;7.18;67.75;99789.25;7712506;32;39594;-78
2022/12/06 07:55:27;;;;;;;9.25;5.68;;;;;;;7.13;69.15;99788.09;7712533;32;37854;-78
2022/12/06 07:59:43;;;;;;;8.70;5.85;;;;;;;6.76;69.21;99794.03;7711206;32;39355;-81
2022/12/06 08:04:01;;;;;;;10.07;5.60;;;;;;;7.03;68.57;99777.09;7712734;32;38165;-81
2022/12/06 08:08:19;;;;;;;10.07;5.72;;;;;;;7.18;66.87;99767.56;7712373;32;38010;-81
2022/12/06 08:12:42;;;;;;;;;;;;;;;7.33;66.32;99775.91;7702035;32;37176;-83
2022/12/06 08:16:58;;;;;;;9.13;4.50;;;;;;;7.21;66.33;99772.44;7707958;32;40538;-84
2022/12/06 08:21:15;;;;;;;7.07;4.03;;;;;;;6.88;66.44;99790.41;7711909;32;40034;-83
2022/12/06 08:25:31;;;;;;;4.47;3.25;;;;;;;5.94;69.39;99791.75;7709987;32;37802;-84
2022/12/06 08:29:47;;;;;;;5.00;3.42;;;;;;;6.01;68.26;99792.44;7712173;32;36938;-85
2022/12/06 08:34:04;;;;;;;6.78;3.70;;;;;;;5.19;71.10;99799.66;7710663;32;39305;-82
2022/12/06 08:38:20;;;;;;;5.75;3.87;;;;;;;5.49;70.11;99801.38;7688447;32;40652;-83
2022/12/06 08:42:36;;;;;;;6.93;4.32;;;;;;;5.71;69.94;99788.06;7688072;32;37478;-83
2022/12/06 08:46:53;;;;;;;9.45;4.37;;;;;;;5.85;69.11;99783.19;7695916;32;37032;-81
2022/12/06 08:51:09;;;;;;;5.78;4.28;;;;;;;5.48;71.46;99791.62;7701315;32;39530;-81
2022/12/06 08:55:25;;;;;;;7.93;4.43;;;;;;;5.52;70.44;99791.97;7701800;32;39889;-81
2022/12/06 08:59:42;;;;;;;7.00;4.50;;;;;;;5.39;70.16;99795.75;7711207;32;37896;-81
2022/12/06 09:03:59;;;;;;;6.25;4.53;;;;;;;5.69;70.53;99789.34;7711847;32;36967;-82
2022/12/06 09:08:17;;;;;;;7.28;5.18;;;;;;;5.59;69.93;99790.78;7711877;32;39438;-82
2022/12/06 09:12:33;;;;;;;7.28;4.65;;;;;;;5.71;70.78;99789.91;7711476;32;40784;-80
2022/12/06 09:16:51;;;;;;;7.22;4.43;;;;;;;5.89;70.04;99787.03;7684314;32;37512;-81
2022/12/06 09:21:09;;;;;;;6.85;4.32;;;;;;;5.75;69.22;99777.56;7686587;32;37151;-81
2022/12/06 09:25:29;;;;;;;7.53;4.57;;;;;;;5.99;68.36;99775.62;7710232;32;39329;-81
2022/12/06 09:29:46;;;;;;;5.82;4.57;;;;;;;5.79;69.64;99793.06;7711381;32;39970;-81
2022/12/06 09:34:02;;;;;;;6.68;4.32;;;;;;;5.78;69.43;99780.63;7709492;32;38304;-81
2022/12/06 09:38:21;;;;;;;4.95;3.85;;;;;;;5.76;70.64;99780.03;7711675;32;37595;-81
2022/12/06 09:43:11;;;;;;;5.40;4.05;;;;;;;5.92;69.05;99780.34;7711352;32;39347;-83
2022/12/06 09:47:39;;;;;;;8.75;5.10;;;;;;;6.30;70.52;99774.31;7711207;32;40829;-80
2022/12/06 09:52:18;;;;;;;14.48;7.57;;;;;;;6.56;70.76;99763.91;7711257;32;36107;-82
2022/12/06 09:56:44;;;;;;;6.82;4.12;;;;;;;6.60;69.11;99773.16;7711253;32;36886;-81
2022/12/06 10:01:21;;;;;;;5.53;3.70;;;;;;;7.15;65.16;99758.81;7711099;32;39079;-81
2022/12/06 10:06:00;;;;;;;5.80;3.00;;;;;;;6.87;67.40;99762.50;7709550;32;40000;-81
2022/12/06 10:10:26;;;;;;;5.35;3.37;;;;;;;7.40;64.59;99754.84;7709145;32;38320;-81
2022/12/06 10:14:58;;;;;;;3.35;3.00;;;;;;;7.38;64.43;99746.12;7708675;32;37980;-81
2022/12/06 10:19:41;;;;;;;3.22;2.50;;;;;;;8.25;65.05;99733.50;7707267;32;40301;-82
2022/12/06 10:24:03;;;;;;;4.37;3.10;;;;;;;7.71;61.60;99738.94;7686866;32;40053;-81
2022/12/06 10:28:47;;;;;;;4.22;3.15;;;;;;;6.96;64.36;99735.78;7708402;32;37951;-81
2022/12/06 10:33:19;;;;;;;3.25;2.95;;;;;;;6.30;66.27;99746.41;7683866;32;37921;-81
2022/12/06 10:37:46;;;;;;;4.80;3.00;;;;;;;6.35;65.92;99735.66;7682755;32;39435;-83
2022/12/06 10:42:23;;;;;;;3.12;2.78;;;;;;;6.81;66.48;99730.16;7683468;32;40789;-82
2022/12/06 10:47:03;;;;;;;3.62;3.00;;;;;;;6.46;65.23;99728.53;7682407;32;38698;-83
2022/12/06 10:51:44;;;;;;;3.87;3.03;;;;;;;6.07;65.72;99731.09;7683156;32;37785;-83
2022/12/06 10:56:06;;;;;;;4.05;2.83;;;;;;;6.32;66.34;99720.72;7683250;32;39071;-79
2022/12/06 11:00:27;;;;;;;4.53;3.17;;;;;;;6.53;67.34;99712.94;7682661;32;40029;-83
2022/12/06 11:04:46;;;;;;;3.60;2.70;;;;;;;6.56;65.58;99717.84;7697620;32;38535;-83
2022/12/06 11:09:39;;;;;;;2.60;2.40;;;;;;;5.99;66.67;99708.78;7703099;32;37234;-81
2022/12/06 11:14:26;;;;;;;2.80;2.40;;;;;;;6.12;64.70;99701.41;7710853;32;39508;-82
2022/12/06 11:18:43;;;;;;;2.95;2.45;;;;;;;6.62;64.72;99697.88;7709525;32;40833;-82
2022/12/06 11:23:18;;;;;;;4.18;2.72;;;;;;;7.21;63.56;99682.97;7712184;32;37918;-81
2022/12/06 11:27:43;;;;;;;3.67;2.90;;;;;;;6.64;62.13;99690.34;7708311;32;36798;-83
2022/12/06 11:32:08;;;;;;;3.85;2.83;;;;;;;6.58;63.70;99691.34;7705909;32;40502;-83
2022/12/06 11:36:28;;;;;;;3.17;2.72;;;;;;;6.36;63.42;99691.25;7711160;32;40812;-82
2022/12/06 11:40:47;;;;;;;4.37;3.22;;;;;;;6.53;63.27;99683.13;7711795;32;38470;-82
2022/12/06 11:45:14;;;;;;;4.15;2.95;;;;;;;5.77;65.12;99686.16;7712655;32;36960;-82
2022/12/06 11:49:38;;;;;;;3.35;2.80;;;;;;;6.24;64.35;99688.63;7711080;32;39275;-83
2022/12/06 11:54:20;;;;;;;3.22;2.92;;;;;;;6.24;64.16;99687.81;7712590;32;40966;-83
2022/12/06 11:58:47;;;;;;;3.03;2.70;;;;;;;5.60;66.11;99689.63;7712686;32;37723;-83
2022/12/06 12:03:24;;;;;;;2.70;2.50;;;;;;;5.84;65.08;99681.44;7691555;32;37885;-83
2022/12/06 12:07:42;;;;;;;2.78;2.37;;;;;;;6.29;62.41;99677.88;7704269;32;39184;-82
2022/12/06 12:12:11;;;;;;;3.20;2.47;;;;;;;6.11;62.55;99676.25;7711349;32;39982;-83
2022/12/06 12:16:36;;;;;;;4.32;3.08;;;;;;;6.14;61.64;99678.47;7712462;32;37747;-82
2022/12/06 12:20:56;;;;;;;3.28;2.97;;;;;;;6.35;62.54;99676.91;7711715;32;38593;-82
2022/12/06 12:25:27;;;;;;;3.20;2.90;;;;;;;6.42;63.14;99673.22;7706884;32;38524;-82
2022/12/06 12:29:43;;;;;;;3.10;2.83;;;;;;;6.03;64.26;99683.94;7694555;32;38896;-83
2022/12/06 12:34:17;;;;;;;3.60;2.30;;;;;;;6.34;63.42;99688.78;7710842;32;37391;-82
2022/12/06 12:38:56;;;;;;;3.62;3.33;;;;;;;6.28;63.95;99692.50;7708394;32;37821;-82
2022/12/06 12:43:15;;;;;;;5.28;2.90;;;;;;;6.36;63.00;99693.97;7710351;32;40203;-81
2022/12/06 12:47:31;;;;;;;3.85;3.30;;;;;;;6.50;62.79;99680.91;7711244;32;40996;-82
2022/12/06 12:51:50;;;;;;;4.37;3.22;;;;;;;6.27;62.09;99685.44;7711715;32;37671;-81
2022/12/06 12:56:24;;;;;;;4.00;3.00;;;;;;;5.90;64.84;99682.31;7710479;32;36771;-82
2022/12/06 13:00:44;;;;;;;4.87;2.95;;;;;;;6.30;63.66;99684.94;7708571;32;40134;-83
2022/12/06 13:05:16;;;;;;;3.30;3.00;;;;;;;6.48;63.47;99674.94;7709259;32;40040;-83
2022/12/06 13:10:06;;;;;;;4.47;3.00;;;;;;;6.55;65.24;99670.16;7711338;32;38343;-81
2022/12/06 13:14:25;;;;;;;3.00;2.80;;;;;;;5.76;64.74;99677.25;7710681;32;37863;-81
2022/12/06 13:18:44;;;;;;;3.08;2.78;;;;;;;5.20;67.31;99676.97;7710728;32;39780;-81
2022/12/06 13:23:10;;;;;;;3.70;2.87;;;;;;;5.62;66.39;99682.13;7709593;32;40971;-81
2022/12/06 13:27:30;;;;;;;3.53;2.87;;;;;;;5.70;65.65;99672.78;7710356;32;37842;-81
2022/12/06 13:31:47;;;;;;;3.55;2.75;;;;;;;6.28;63.00;99661.88;7711592;32;37863;-81
2022/12/06 13:36:07;;;;;;;4.60;3.00;;;;;;;6.34;63.01;99675.25;7710182;32;40095;-81
2022/12/06 13:40:32;;;;;;;2.85;2.65;;;;;;;6.06;63.89;99673.47;7710157;32;40909;-81
2022/12/06 13:44:58;;;;;;;3.10;2.80;;;;;;;5.72;64.91;99680.66;7711491;32;38359;-82
2022/12/06 13:49:24;;;;;;;3.75;2.92;;;;;;;5.87;63.75;99677.44;7711431;32;37017;-82
2022/12/06 13:54:02;;;;;;;4.00;2.80;;;;;;;5.98;63.21;99674.66;7711157;32;40088;-82
2022/12/06 13:58:18;;;;;;;4.87;3.10;;;;;;;5.58;64.50;99682.84;7580641;32;4264429;-82
2022/12/06 14:02:57;;;;;;;4.85;2.70;;;;;;;6.19;62.72;99656.06;7710867;32;37835;-81
2022/12/06 14:07:15;;;;;;;2.80;2.60;;;;;;;6.81;60.64;99643.44;7710801;32;37830;-81
2022/12/06 14:11:31;;;;;;;4.32;2.87;;;;;;;6.36;62.25;99653.34;7710861;32;39870;-81
2022/12/06 14:15:54;;;;;;;4.80;2.62;;;;;;;5.99;63.64;99660.09;7709561;32;40611;-82
2022/12/06 14:20:22;;;;;;;3.47;3.10;;;;;;;5.98;62.97;99661.12;7710064;32;37786;-80
2022/12/06 14:24:41;;;;;;;4.57;3.15;;;;;;;6.32;62.69;99653.03;7709410;32;37609;-81
2022/12/06 14:28:59;;;;;;;6.00;3.83;;;;;;;6.25;62.94;99657.00;7709570;32;40088;-81
2022/12/06 14:33:22;;;;;;;5.65;3.50;;;;;;;6.72;61.57;99654.69;7710514;32;39934;-81
2022/12/06 14:37:38;;;;;;;5.53;3.42;;;;;;;6.26;61.67;99661.31;7707851;32;38270;-81
2022/12/06 14:46:30;;;;;;;4.70;2.70;;;;;;;6.75;59.21;99673.16;7708157;32;39384;-83
2022/12/06 14:51:17;;;;;;;9.70;3.45;;;;;;;5.98;60.10;99669.25;7709839;32;39510;-82
2022/12/06 14:56:00;;;;;;;6.50;3.50;;;;;;;5.94;61.06;99668.09;7707212;32;38280;-81
2022/12/06 15:00:21;;;;;;;4.87;3.00;;;;;;;6.29;60.19;99679.78;7708388;32;36779;-82
2022/12/06 15:04:42;;;;;;;4.82;3.28;;;;;;;6.12;60.87;99682.47;7708809;32;39387;-82
2022/12/06 15:09:09;;;;;;;3.25;2.90;;;;;;;6.17;61.79;99682.56;7709714;32;39360;-82
2022/12/06 15:13:26;;;;;;;5.53;3.50;;;;;;;6.19;61.70;99675.84;7708627;32;37639;-82
2022/12/06 15:17:43;;;;;;;4.85;3.35;;;;;;;5.61;63.56;99685.06;7707873;32;37814;-82
2022/12/06 15:22:00;;;;;;;6.45;3.65;;;;;;;6.17;62.31;99674.44;7707747;32;40534;-82
2022/12/06 15:26:20;;;;;;;7.60;4.10;;;;;;;6.43;61.40;99674.84;7708582;32;38989;-82
2022/12/06 15:30:38;;;;;;;5.72;3.78;;;;;;;6.33;61.62;99684.47;7709033;32;37515;-81
2022/12/06 15:34:54;;;;;;;7.00;4.00;;;;;;;6.03;62.68;99670.41;7708138;32;36774;-82
2022/12/06 15:39:11;;;;;;;5.90;3.70;;;;;;;5.36;64.90;99679.97;7707688;32;39783;-82
2022/12/06 15:43:35;;;;;;;4.68;2.90;;;;;;;5.72;63.82;99680.66;7707967;32;39887;-82
2022/12/06 15:47:52;;;;;;;3.45;2.70;;;;;;;4.88;66.35;99696.31;7709407;32;37736;-81
2022/12/06 15:52:23;;;;;;;5.75;3.45;;;;;;;5.47;65.39;99695.34;7712446;32;38191;-83
2022/12/06 15:56:39;;;;;;;5.87;3.30;;;;;;;5.59;64.07;99698.84;7711959;32;40084;-82
2022/12/06 16:00:57;;;;;;;5.20;3.67;;;;;;;5.41;64.23;99701.72;7712426;32;40079;-82
2022/12/06 16:05:15;;;;;;;5.53;3.42;;;;;;;5.14;64.99;99707.66;7710369;32;37705;-82
2022/12/06 16:09:31;;;;;;;4.45;3.37;;;;;;;5.50;63.54;99711.06;7711186;32;37429;-82
2022/12/06 16:13:49;;;;;;;6.43;4.00;;;;;;;5.45;63.83;99709.13;7712182;32;39471;-82
2022/12/06 16:18:06;;;;;;;6.12;4.15;;;;;;;4.84;64.79;99716.72;7711455;32;39963;-82
2022/12/06 16:23:59;;;;;;;6.25;3.42;;;;;;;5.04;64.30;99712.84;7711910;32;38737;-83
2022/12/06 16:26:58;;;;;;;6.22;3.75;;;;;;;5.31;63.46;99712.31;7711644;32;36755;-82
2022/12/06 16:31:14;;;;;;;7.65;3.65;;;;;;;4.89;65.07;99724.94;7710781;32;39044;-81
2022/12/06 16:35:31;;;;;;;5.07;3.50;;;;;;;5.16;64.38;99719.06;7711479;32;40880;-83
2022/12/06 16:39:47;;;;;;;7.82;4.30;;;;;;;5.18;64.52;99719.63;7711778;32;38610;-82
2022/12/06 16:44:03;;;;;;;5.40;3.40;;;;;;;5.48;63.53;99721.31;7711508;32;37012;-81
2022/12/06 16:48:22;;;;;;;7.22;4.20;;;;;;;5.12;64.66;99719.75;7711189;32;39216;-81
2022/12/06 16:52:38;;;;;;;6.60;3.85;;;;;;;5.43;63.25;99718.50;7711298;32;39913;-83
2022/12/06 16:56:58;;;;;;;7.15;4.07;;;;;;;4.78;64.15;99723.09;7710567;32;36432;-82
2022/12/06 17:01:28;;;;;;;6.10;3.95;;;;;;;5.00;64.30;99719.78;7710719;32;37104;-81
2022/12/06 17:05:44;;;;;;;6.93;3.85;;;;;;;4.99;64.16;99718.16;7711571;32;39294;-81
2022/12/06 17:10:00;;;;;;;6.43;4.25;;;;;;;5.12;64.10;99715.16;7710830;32;40636;-80
2022/12/06 17:14:17;;;;;;;7.60;4.50;;;;;;;5.51;63.10;99711.91;7711242;32;37892;-81
2022/12/06 17:18:35;;;;;;;5.45;3.87;;;;;;;4.88;64.60;99715.22;7710673;32;37070;-81
2022/12/06 17:22:54;;;;;;;6.32;4.00;;;;;;;5.13;64.37;99724.94;7711248;32;38344;-81
2022/12/06 17:27:13;;;;;;;6.20;4.28;;;;;;;5.58;63.13;99718.81;7710896;32;39630;-81
2022/12/06 17:31:31;;;;;;;7.80;4.50;;;;;;;5.19;64.27;99725.84;7710887;32;37814;-82
2022/12/06 17:35:47;;;;;;;7.15;4.45;;;;;;;5.38;62.80;99718.41;7711438;32;38028;-81
2022/12/06 17:40:05;;;;;;;9.32;4.65;;;;;;;5.30;63.35;99716.09;7710753;32;39383;-81
2022/12/06 17:44:22;;;;;;;7.47;4.87;;;;;;;4.64;65.42;99722.50;7710871;32;38656;-82
2022/12/06 17:48:38;;;;;;;6.53;4.18;;;;;;;5.05;64.46;99714.47;7710592;32;37582;-82
2022/12/06 17:52:59;;;;;;;5.12;3.72;;;;;;;5.45;62.97;99705.59;7711029;32;37013;-81
2022/12/06 17:57:16;;;;;;;7.55;3.97;;;;;;;5.19;63.52;99720.44;7711007;32;39394;-82
2022/12/06 18:01:34;;;;;;;8.07;4.53;;;;;;;5.51;62.95;99710.03;7710124;32;40781;-81
2022/12/06 18:06:10;;;;;;;6.72;3.72;;;;;;;4.94;64.45;99718.84;7711201;32;37992;-81
2022/12/06 18:10:27;;;;;;;7.43;4.20;;;;;;;5.35;62.66;99708.91;7710320;32;37128;-82
2022/12/06 18:14:44;;;;;;;7.35;4.65;;;;;;;5.97;60.62;99705.50;7710598;32;39303;-81
2022/12/06 18:19:04;;;;;;;8.60;4.45;;;;;;;5.33;62.40;99710.19;7709865;32;40058;-82
2022/12/06 18:23:23;;;;;;;7.47;4.28;;;;;;;5.78;61.09;99709.47;7710094;32;37759;-81
2022/12/06 18:27:40;;;;;;;5.50;3.92;;;;;;;5.36;61.88;99710.53;7710560;32;37130;-81
2022/12/06 18:31:56;;;;;;;7.65;4.00;;;;;;;5.11;63.20;99710.84;7709817;32;39079;-82
2022/12/06 18:36:13;;;;;;;6.32;4.03;;;;;;;5.00;63.36;99711.66;7709178;32;40964;-81
2022/12/06 18:40:31;;;;;;;4.68;3.80;;;;;;;5.03;63.13;99701.19;7709524;32;37697;-82
2022/12/06 18:44:47;;;;;;;7.40;4.12;;;;;;;5.63;61.37;99699.16;7709978;32;37287;-81
2022/12/06 18:49:13;;;;;;;8.52;4.25;;;;;;;5.55;61.01;99697.66;7708971;32;39460;-82
2022/12/06 18:53:29;;;;;;;7.05;4.53;;;;;;;5.52;61.43;99691.91;7709884;32;40821;-82
2022/12/06 18:57:46;;;;;;;9.52;4.78;;;;;;;5.39;61.07;99693.84;7709768;32;37919;-81
2022/12/06 19:02:03;;;;;;;8.65;5.35;;;;;;;5.44;60.99;99693.94;7709593;32;37194;-82
2022/12/06 19:06:23;;;;;;;11.48;6.03;;;;;;;5.16;62.05;99694.72;7709575;32;39435;-81
2022/12/06 19:10:39;;;;;;;12.85;6.85;;;;;;;5.18;62.07;99695.31;7709337;32;40871;-82
2022/12/06 19:14:55;;;;;;;13.75;6.80;;;;;;;5.54;61.14;99690.63;7709145;32;37840;-82
2022/12/06 19:19:16;;;;;;;12.05;6.55;;;;;;;5.67;60.75;99694.09;7709201;32;38654;-82
2022/12/06 19:23:32;;;;;;;10.93;6.12;;;;;;;6.05;60.04;99684.53;7711819;32;39039;-81
2022/12/06 19:27:48;;;;;;;14.20;6.55;;;;;;;5.94;60.14;99692.44;7712854;32;39708;-82
2022/12/06 19:32:05;;;;;;;13.93;6.60;;;;;;;6.36;58.79;99696.69;7698976;32;38660;-82
2022/12/06 19:36:25;;;;;;;9.77;6.22;;;;;;;6.18;59.80;99703.97;7712565;32;37866;-82
2022/12/06 19:40:41;;;;;;;9.05;5.57;;;;;;;5.67;60.70;99704.91;7712662;32;40354;-82
2022/12/06 19:44:58;;;;;;;8.90;5.45;;;;;;;5.70;61.18;99707.97;7712592;32;40121;-82
2022/12/06 19:49:16;;;;;;;8.02;5.35;;;;;;;5.73;60.44;99703.97;7712586;32;38879;-81
2022/12/06 19:53:34;;;;;;;8.05;5.57;;;;;;;6.06;59.73;99697.81;7712685;32;37893;-82
2022/12/06 19:57:51;;;;;;;8.38;5.03;;;;;;;5.99;59.53;99689.03;7712646;32;39409;-82
2022/12/06 20:02:10;;;;;;;8.95;5.55;;;;;;;6.18;59.08;99689.63;7708500;32;40230;-81
2022/12/06 20:06:26;;;;;;;11.50;5.97;;;;;;;6.12;58.63;99686.03;7712458;32;37702;-81
2022/12/06 20:10:43;;;;;;;9.48;6.00;;;;;;;5.75;59.99;99691.00;7691478;32;37168;-81
2022/12/06 20:14:59;;;;;;;8.52;5.43;;;;;;;6.23;58.93;99681.59;7689182;32;39540;-82
2022/12/06 20:19:16;;;;;;;9.82;5.75;;;;;;;6.15;59.24;99671.16;7712305;32;40708;-82
2022/12/06 20:23:32;;;;;;;12.63;5.87;;;;;;;6.10;59.28;99671.09;7712035;32;37481;-82
2022/12/06 20:27:51;;;;;;;9.25;5.60;;;;;;;6.33;58.89;99676.34;7712268;32;37910;-81
2022/12/06 20:32:08;;;;;;;11.30;5.90;;;;;;;6.46;58.41;99674.38;7711557;32;40027;-83
2022/12/06 20:36:25;;;;;;;10.75;6.15;;;;;;;5.93;59.84;99682.69;7711518;32;39594;-82
2022/12/06 20:40:41;;;;;;;11.70;6.20;;;;;;;6.18;59.08;99676.09;7694792;32;37936;-82
2022/12/06 20:44:58;;;;;;;12.30;7.10;;;;;;;6.34;58.77;99682.56;7685132;32;37904;-83
2022/12/06 20:49:15;;;;;;;11.50;6.80;;;;;;;6.22;59.51;99681.84;7685186;32;39065;-81
2022/12/06 20:53:31;;;;;;;13.02;6.87;;;;;;;6.46;58.51;99674.38;7685081;32;40831;-82
2022/12/06 20:57:48;;;;;;;11.85;7.22;;;;;;;6.50;58.35;99673.63;7684978;32;38433;-82
2022/12/06 21:02:05;;;;;;;13.13;7.50;;;;;;;6.29;58.51;99669.75;7684860;32;37840;-82